createdAt,value
2017-07-18T00:02:04.866Z,1016.17
2017-07-18T00:07:00.648Z,1016.12
2017-07-18T00:11:56.861Z,1016.13
2017-07-18T00:16:52.678Z,1016.14
2017-07-18T00:21:48.418Z,1016.13
2017-07-18T00:26:45.260Z,1016.08
2017-07-18T00:31:41.868Z,1016.06
2017-07-18T00:36:37.454Z,1016.02
2017-07-18T00:41:33.262Z,1016.05
2017-07-18T00:46:29.432Z,1015.99
2017-07-18T00:51:26.380Z,1016.10
2017-07-18T00:56:23.093Z,1016.04
2017-07-18T01:01:19.561Z,1016.05
2017-07-18T01:06:16.217Z,1016.07
2017-07-18T01:11:12.804Z,1016.02
2017-07-18T01:16:08.320Z,1015.93
2017-07-18T01:21:05.332Z,1015.94
2017-07-18T01:26:01.042Z,1015.93
2017-07-18T01:30:57.998Z,1015.93
2017-07-18T01:35:53.405Z,1015.89
2017-07-18T01:40:50.984Z,1015.91
2017-07-18T01:45:46.442Z,1015.91
2017-07-18T01:50:42.302Z,1015.77
2017-07-18T01:55:39.217Z,1015.83
2017-07-18T02:00:36.158Z,1015.84
2017-07-18T02:05:31.588Z,1015.82
2017-07-18T02:10:29.364Z,1015.79
2017-07-18T02:15:25.262Z,1015.82
2017-07-18T02:20:21.036Z,1015.69
2017-07-18T02:25:17.916Z,1015.78
2017-07-18T02:30:13.387Z,1015.74
2017-07-18T02:35:08.908Z,1015.78
2017-07-18T02:40:04.846Z,1015.76
2017-07-18T02:45:01.836Z,1015.66
2017-07-18T02:49:57.194Z,1015.72
2017-07-18T02:54:53.393Z,1015.66
2017-07-18T02:59:49.868Z,1015.65
2017-07-18T03:04:45.507Z,1015.65
2017-07-18T03:09:41.331Z,1015.61
2017-07-18T03:14:37.158Z,1015.51
2017-07-18T03:19:32.997Z,1015.59
2017-07-18T03:24:29.751Z,1015.61
2017-07-18T03:29:25.236Z,1015.58
2017-07-18T03:34:22.141Z,1015.58
2017-07-18T03:39:17.723Z,1015.57
2017-07-18T03:44:14.873Z,1015.50
2017-07-18T03:49:10.515Z,1015.57
2017-07-18T03:54:06.396Z,1015.56
2017-07-18T03:59:03.313Z,1015.70
2017-07-18T04:04:00.196Z,1015.68
2017-07-18T04:08:55.957Z,1015.66
2017-07-18T04:13:51.867Z,1015.68
2017-07-18T04:18:48.953Z,1015.68
2017-07-18T04:23:45.387Z,1015.70
2017-07-18T04:28:41.262Z,1015.62
2017-07-18T04:33:37.382Z,1015.62
2017-07-18T04:38:34.707Z,1015.63
2017-07-18T04:43:30.781Z,1015.53
2017-07-18T04:48:27.575Z,1015.59
2017-07-18T04:53:24.400Z,1015.63
2017-07-18T04:58:21.662Z,1015.59
2017-07-18T05:03:17.757Z,1015.54
2017-07-18T05:08:14.950Z,1015.55
2017-07-18T05:13:10.988Z,1015.55
2017-07-18T05:18:08.070Z,1015.55
2017-07-18T05:23:04.191Z,1015.49
2017-07-18T05:28:01.167Z,1015.48
2017-07-18T05:32:58.295Z,1015.42
2017-07-18T05:37:54.221Z,1015.43
2017-07-18T05:42:50.225Z,1015.45
2017-07-18T05:47:47.240Z,1015.53
2017-07-18T05:52:44.217Z,1015.53
2017-07-18T05:57:42.044Z,1015.56
2017-07-18T06:02:38.558Z,1015.54
2017-07-18T06:07:34.581Z,1015.48
2017-07-18T06:12:32.578Z,1015.52
2017-07-18T06:17:30.342Z,1015.55
2017-07-18T06:22:25.456Z,1015.58
2017-07-18T06:27:21.284Z,1015.57
2017-07-18T06:32:17.225Z,1015.65
2017-07-18T06:37:13.657Z,1015.52
2017-07-18T06:42:12.101Z,1015.62
2017-07-18T06:47:10.719Z,1015.59
2017-07-18T06:52:07.895Z,1015.55
2017-07-18T06:57:06.133Z,1015.64
2017-07-18T07:02:02.813Z,1015.50
2017-07-18T07:06:58.706Z,1015.42
2017-07-18T07:11:56.825Z,1015.35
2017-07-18T07:32:01.366Z,1015.46
2017-07-18T07:36:57.844Z,1015.35
2017-07-18T07:41:56.456Z,1015.33
2017-07-18T07:51:55.963Z,1015.27
2017-07-18T07:56:55.280Z,1015.38
2017-07-18T08:07:04.163Z,1015.30
2017-07-18T08:12:01.687Z,1015.28
2017-07-18T08:17:01.928Z,1015.34
2017-07-18T08:27:04.015Z,1015.15
2017-07-18T08:31:58.470Z,1015.07
2017-07-18T08:36:54.062Z,1015.13
2017-07-18T08:41:51.147Z,1015.05
2017-07-18T08:46:47.229Z,1015.05
2017-07-18T08:51:46.938Z,1015.13
2017-07-18T08:56:46.754Z,1015.15
2017-07-18T09:01:48.872Z,1015.06
2017-07-18T09:06:44.948Z,1014.99
2017-07-18T09:11:43.841Z,1014.98
2017-07-18T09:16:39.872Z,1014.92
2017-07-18T09:21:36.696Z,1014.87
2017-07-18T09:26:36.288Z,1014.90
2017-07-18T09:31:31.415Z,1014.79
2017-07-18T09:36:28.193Z,1014.77
2017-07-18T09:41:25.769Z,1014.88
2017-07-18T09:46:21.523Z,1014.86
2017-07-18T09:51:18.435Z,1014.87
2017-07-18T09:56:14.846Z,1014.85
2017-07-18T10:01:11.665Z,1014.76
2017-07-18T10:06:07.656Z,1014.62
2017-07-18T10:11:04.104Z,1014.68
2017-07-18T10:16:01.214Z,1014.63
2017-07-18T10:20:57.224Z,1014.66
2017-07-18T10:25:53.496Z,1014.56
2017-07-18T10:30:50.414Z,1014.58
2017-07-18T10:35:46.292Z,1014.50
2017-07-18T10:40:43.495Z,1014.51
2017-07-18T10:45:41.469Z,1014.28
2017-07-18T10:50:38.787Z,1014.30
2017-07-18T10:55:35.892Z,1014.23
2017-07-18T11:00:32.018Z,1014.18
2017-07-18T11:05:27.547Z,1013.98
2017-07-18T11:10:23.945Z,1013.90
2017-07-18T11:15:20.711Z,1013.80
2017-07-18T11:20:17.596Z,1013.73
2017-07-18T11:25:14.562Z,1013.84
2017-07-18T11:30:13.112Z,1013.67
2017-07-18T11:35:09.369Z,1013.55
2017-07-18T11:40:06.094Z,1013.58
2017-07-18T11:45:02.289Z,1013.53
2017-07-18T11:50:00.011Z,1013.30
2017-07-18T11:54:57.508Z,1013.35
2017-07-18T11:59:53.922Z,1013.24
2017-07-18T12:04:51.270Z,1013.21
2017-07-18T12:09:47.865Z,1013.04
2017-07-18T12:14:43.586Z,1013.05
2017-07-18T12:19:39.812Z,1013.02
2017-07-18T13:16:35.908Z,1012.60
2017-07-18T13:21:30.779Z,1012.47
2017-07-18T13:26:27.812Z,1012.33
2017-07-18T13:31:23.768Z,1012.37
2017-07-18T13:36:20.036Z,1012.21
2017-07-18T13:41:16.944Z,1012.32
2017-07-18T13:46:13.752Z,1012.16
2017-07-18T13:51:09.147Z,1012.02
2017-07-18T13:56:04.803Z,1011.97
2017-07-18T14:01:01.108Z,1011.98
2017-07-18T14:05:57.151Z,1011.99
2017-07-18T14:10:53.340Z,1011.93
2017-07-18T14:15:49.409Z,1011.83
2017-07-18T14:20:44.015Z,1011.67
2017-07-18T14:25:39.240Z,1011.68
2017-07-18T14:30:34.958Z,1011.57
2017-07-18T14:35:30.705Z,1011.55
2017-07-18T14:40:26.506Z,1011.58
2017-07-18T14:45:22.412Z,1011.49
2017-07-18T14:50:18.292Z,1011.46
2017-07-18T14:55:15.134Z,1011.31
2017-07-18T15:00:10.596Z,1011.41
2017-07-18T15:05:07.585Z,1011.33
2017-07-18T15:10:04.404Z,1011.15
2017-07-18T15:15:00.267Z,1011.11
2017-07-18T15:19:57.411Z,1011.12
2017-07-18T15:24:52.983Z,1011.02
2017-07-18T15:29:49.832Z,1011.05
2017-07-18T15:34:45.667Z,1010.96
2017-07-18T15:39:44.871Z,1010.84
2017-07-18T15:44:40.156Z,1010.78
2017-07-18T15:49:37.064Z,1010.76
2017-07-18T15:54:33.319Z,1010.70
2017-07-18T15:59:29.386Z,1010.57
2017-07-18T16:04:27.388Z,1010.52
2017-07-18T16:09:23.492Z,1010.46
2017-07-18T16:14:20.852Z,1010.43
2017-07-18T16:19:17.515Z,1010.47
2017-07-18T16:24:15.368Z,1010.46
2017-07-18T16:29:10.820Z,1010.26
2017-07-18T16:39:08.396Z,1010.31
2017-07-18T16:44:05.028Z,1010.20
2017-07-18T16:49:01.913Z,1010.22
2017-07-18T16:53:57.584Z,1010.17
2017-07-18T16:58:53.398Z,1010.05
2017-07-18T17:03:54.546Z,1010.13
2017-07-18T17:08:49.678Z,1010.09
2017-07-18T17:13:45.734Z,1010.06
2017-07-18T17:18:42.630Z,1010.09
2017-07-18T17:23:38.355Z,1010.10
2017-07-18T17:28:34.342Z,1010.11
2017-07-18T17:33:30.490Z,1010.00
2017-07-18T17:38:26.564Z,1010.08
2017-07-18T17:43:23.551Z,1010.09
2017-07-18T17:48:20.388Z,1010.06
2017-07-18T17:53:17.260Z,1010.08
2017-07-18T17:58:13.118Z,1010.10
2017-07-18T18:03:08.961Z,1010.12
2017-07-18T18:08:05.143Z,1010.08
2017-07-18T18:13:02.321Z,1010.10
2017-07-18T18:17:58.091Z,1010.06
2017-07-18T18:22:54.555Z,1010.19
2017-07-18T18:27:51.428Z,1010.10
2017-07-18T18:32:46.930Z,1009.98
2017-07-18T18:37:42.815Z,1009.98
2017-07-18T18:42:40.124Z,1010.05
2017-07-18T18:47:37.335Z,1009.98
2017-07-18T18:52:34.193Z,1009.96
2017-07-18T18:57:29.825Z,1009.87
2017-07-18T19:02:26.612Z,1009.86
2017-07-18T19:07:22.011Z,1009.89
2017-07-18T19:12:19.127Z,1009.89
2017-07-18T19:22:17.403Z,1009.93
2017-07-18T19:27:12.875Z,1009.88
2017-07-18T19:32:09.012Z,1009.84
2017-07-18T19:37:04.824Z,1009.82
2017-07-18T19:42:00.702Z,1009.85
2017-07-18T19:46:57.783Z,1009.86
2017-07-18T19:51:54.345Z,1009.86
2017-07-18T19:56:51.901Z,1009.93
2017-07-18T20:01:47.374Z,1009.80
2017-07-18T20:06:43.857Z,1009.78
2017-07-18T20:11:39.796Z,1009.78
2017-07-18T20:16:36.278Z,1009.69
2017-07-18T20:21:32.176Z,1009.60
2017-07-18T20:26:30.132Z,1009.56
2017-07-18T20:31:26.196Z,1009.62
2017-07-18T20:36:21.600Z,1009.65
2017-07-18T20:41:17.614Z,1009.57
2017-07-18T20:46:13.652Z,1009.55
2017-07-18T20:51:09.693Z,1009.53
2017-07-18T20:56:07.347Z,1009.44
2017-07-18T21:01:04.070Z,1009.57
2017-07-18T21:06:00.730Z,1009.48
2017-07-18T21:10:56.727Z,1009.41
2017-07-18T21:15:52.534Z,1009.32
2017-07-18T21:20:49.404Z,1009.40
2017-07-18T21:25:47.279Z,1009.38
2017-07-18T21:30:43.653Z,1009.24
2017-07-18T21:35:39.466Z,1009.28
2017-07-18T21:40:35.783Z,1009.30
2017-07-18T21:45:31.662Z,1009.38
2017-07-18T21:50:27.567Z,1009.47
2017-07-18T21:55:24.985Z,1009.37
2017-07-18T22:00:21.096Z,1009.34
2017-07-18T22:05:18.019Z,1009.27
2017-07-18T22:10:14.879Z,1009.23
2017-07-18T22:15:10.814Z,1009.05
2017-07-18T22:20:06.651Z,1009.19
2017-07-18T22:25:02.614Z,1009.01
2017-07-18T22:30:01.175Z,1008.93
2017-07-18T22:34:57.498Z,1008.98
2017-07-18T22:39:53.205Z,1008.92
2017-07-18T22:44:50.476Z,1008.85
2017-07-18T22:49:48.540Z,1008.91
2017-07-18T22:54:45.008Z,1008.88
2017-07-18T22:59:42.169Z,1008.79
2017-07-18T23:04:37.585Z,1008.72
2017-07-18T23:09:34.682Z,1008.73
2017-07-18T23:14:32.875Z,1008.81
2017-07-18T23:19:28.790Z,1008.85
2017-07-18T23:24:26.253Z,1008.78
2017-07-18T23:29:22.295Z,1008.67
2017-07-18T23:34:18.036Z,1008.66
2017-07-18T23:39:15.401Z,1008.62
2017-07-18T23:44:11.246Z,1008.55
2017-07-18T23:49:07.324Z,1008.46
2017-07-18T23:54:05.059Z,1008.45
2017-07-18T23:59:01.245Z,1008.46
